Terminal Aerodrome Forecast
Issued by NWS Mt. Holly, NJ

Home | Current Version | Previous Version | Text Only | Print | Product List | Glossary On
Versions: 1 2 3 4 5 6 7 8 9 10 11 12 13 14 15 16 17 18 19 20 21 22 23 24 25 26 27 28 29 30 31 32 33
657
FTUS41 KPHI 232119 AAA
TAFPHL
TAF AMD
KPHL 232119Z 2321/2424 06025G40KT 6SM -RA BR OVC015
     FM240000 03025G35KT 2SM RA BR OVC007
     FM240800 36020G30KT 5SM -RA BR OVC007
     FM241800 33015G25KT P6SM OVC015=

USA.gov is the U.S. government's official web portal to all federal, state and local government web resources and services.